Pretty Lady — 9HVY9 — position and weather

sailwx.info

Track history (hours):
 
Tides and Currents Weather Stations Pressure Air Temp Water Temp Dewpoint Dewpoint Depression Visibility Wind Speed Wind Dir Waves Ship Positions

Pretty Lady

Last reported at 2014-Oct-31 07:33 UTC. Time now 2014-Oct-31 08:24 UTC.
Position N 36°45' W 011°26'.

Length 189 m; draft 12.2 m.

Type: Cargo ship. MMSI: 249617000.

Date/timePositionNaut miles runAvg speedWind from/ knotsBaromVisibWave heightAir tempDewpointWater temp
2014-Oct-31 07:33N 36°45' W 011°26'6613.2
2014-Oct-31 02:33N 36°57' W 012°47'1713.2
2014-Oct-31 01:16N 37°00' W 013°08'1313.1
2014-Oct-31 00:16N 37°03' W 013°24'1013.3
2014-Oct-30 23:33N 37°05' W 013°36'65213.0
2014-Oct-28 21:25N 39°24' W 027°07'1612.8
2014-Oct-28 20:08N 39°29' W 027°27'813.3
2014-Oct-28 19:33N 39°32' W 027°37'1313.2
2014-Oct-28 18:33N 39°35' W 027°53'1313.2
2014-Oct-28 17:33N 39°38' W 028°10'1313.1
2014-Oct-28 16:33N 39°43' W 028°26'1313.5
2014-Oct-28 15:33N 39°45' W 028°43'1313.4
2014-Oct-28 14:33N 39°47' W 029°00'1312.9
2014-Oct-28 13:33N 39°49' W 029°17'1312.8
2014-Oct-28 12:33N 39°51' W 029°33'1412.8
2014-Oct-28 11:25N 39°53' W 029°52'13013.1
2014-Oct-28 01:30N 40°16' W 032°40'  
Track history (hours):
 
Tides and Currents Weather Stations Pressure Air Temp Water Temp Dewpoint Dewpoint Depression Visibility Wind Speed Wind Dir Waves Ship Positions

Pretty Lady

Last reported at 2014-Oct-31 07:33 UTC. Time now 2014-Oct-31 08:24 UTC.
Position N 36°45' W 011°26'.

Length 189 m; draft 12.2 m.

Type: Cargo ship. MMSI: 249617000.

Date/timePositionNaut miles runAvg speedWind from/ knotsBaromVisibWave heightAir tempDewpointWater temp
2014-Oct-31 07:33N 36°45' W 011°26'6613.2
2014-Oct-31 02:33N 36°57' W 012°47'1713.2
2014-Oct-31 01:16N 37°00' W 013°08'1313.1
2014-Oct-31 00:16N 37°03' W 013°24'1013.3
2014-Oct-30 23:33N 37°05' W 013°36'65213.0
2014-Oct-28 21:25N 39°24' W 027°07'1612.8
2014-Oct-28 20:08N 39°29' W 027°27'813.3
2014-Oct-28 19:33N 39°32' W 027°37'1313.2
2014-Oct-28 18:33N 39°35' W 027°53'1313.2
2014-Oct-28 17:33N 39°38' W 028°10'1313.1
2014-Oct-28 16:33N 39°43' W 028°26'1313.5
2014-Oct-28 15:33N 39°45' W 028°43'1313.4
2014-Oct-28 14:33N 39°47' W 029°00'1312.9
2014-Oct-28 13:33N 39°49' W 029°17'1312.8
2014-Oct-28 12:33N 39°51' W 029°33'1412.8
2014-Oct-28 11:25N 39°53' W 029°52'13013.1
2014-Oct-28 01:30N 40°16' W 032°40'  

Dump ship's entire track history